Time;durP1;ratioP1;P1;durP2;ratioP2;P2;SDS_P1;SDS_P2;PMS_P1;PMS_P2;Temp;Humidity;BMP_temperature;BMP_pressure;BME280_temperature;BME280_humidity;BME280_pressure;Samples;Min_cycle;Max_cycle;Signal;HPM_P1;HPM_P2
2023/09/27 00:02:12;;;;;;;1.48;1.48;;;;;;;16.27;78.47;97307.16;4842045;29;20061;-66
2023/09/27 00:04:39;;;;;;;1.50;1.50;;;;;;;16.27;78.61;97302.38;4853829;29;20486;-66
2023/09/27 00:07:06;;;;;;;1.45;1.45;;;;;;;16.29;78.39;97299.97;4836046;29;20411;-66
2023/09/27 00:09:34;;;;;;;1.45;1.45;;;;;;;15.93;78.51;97258.47;4818966;29;20070;-65
2023/09/27 00:12:04;;;;;;;1.60;1.60;;;;;;;16.27;78.75;97291.19;4835691;29;20066;-65
2023/09/27 00:14:32;;;;;;;1.60;1.60;;;;;;;16.21;78.60;97292.78;4834233;29;20427;-65
2023/09/27 00:16:58;;;;;;;1.38;1.38;;;;;;;16.10;78.84;97297.59;4835243;29;20054;-64
2023/09/27 00:19:25;;;;;;;1.40;1.40;;;;;;;16.04;79.42;97287.22;4835380;29;20156;-66
2023/09/27 00:21:52;;;;;;;1.50;1.50;;;;;;;15.54;79.55;97219.34;4835095;29;20068;-67
2023/09/27 00:24:19;;;;;;;1.40;1.40;;;;;;;16.00;79.35;97303.97;4835657;29;20061;-66
2023/09/27 00:26:45;;;;;;;1.30;1.30;;;;;;;15.95;78.43;97286.81;4835356;29;20068;-66
2023/09/27 00:29:12;;;;;;;1.40;1.40;;;;;;;15.88;78.43;97279.22;4833873;29;21297;-66
2023/09/27 00:31:39;;;;;;;1.30;1.30;;;;;;;15.91;78.95;97294.38;4833805;29;20525;-64
2023/09/27 00:34:05;;;;;;;1.50;1.50;;;;;;;15.84;79.66;97289.59;4835231;29;20061;-66
2023/09/27 00:36:33;;;;;;;1.30;1.30;;;;;;;15.76;80.80;97281.63;4834913;29;20620;-65
2023/09/27 00:38:59;;;;;;;1.35;1.35;;;;;;;15.50;80.65;97246.50;4835278;29;20076;-66
2023/09/27 00:41:26;;;;;;;1.35;1.35;;;;;;;15.87;80.22;97283.22;4834960;29;20064;-65
2023/09/27 00:43:53;;;;;;;1.20;1.20;;;;;;;15.72;80.41;97276.03;4835089;29;20084;-66
2023/09/27 00:46:22;;;;;;;1.30;1.30;;;;;;;15.26;80.41;97224.09;4834931;29;20148;-65
2023/09/27 00:48:49;;;;;;;1.35;1.35;;;;;;;15.66;80.43;97283.22;4833529;29;20077;-66
2023/09/27 00:51:16;;;;;;;1.20;1.20;;;;;;;15.53;80.81;97279.19;4834795;29;20343;-65
2023/09/27 00:53:44;;;;;;;1.25;1.25;;;;;;;15.43;81.56;97284.78;4835128;29;20130;-66
2023/09/27 00:56:11;;;;;;;1.40;1.40;;;;;;;15.44;81.72;97287.19;4833394;29;20141;-65
2023/09/27 00:58:38;;;;;;;1.33;1.33;;;;;;;15.37;83.07;97287.13;4834795;29;20135;-64
2023/09/27 01:01:06;;;;;;;1.42;1.42;;;;;;;15.43;83.46;97285.56;4841112;29;20092;-64
2023/09/27 01:03:33;;;;;;;1.30;1.30;;;;;;;15.40;83.50;97277.97;4854860;29;20052;-66
2023/09/27 01:06:00;;;;;;;1.30;1.30;;;;;;;14.75;83.65;97176.94;4871498;29;20071;-66
2023/09/27 01:08:27;;;;;;;1.30;1.30;;;;;;;14.78;83.43;97192.88;4869319;29;20060;-64
2023/09/27 01:10:54;;;;;;;1.35;1.35;;;;;;;15.26;84.57;97280.72;4871501;29;20064;-66
2023/09/27 01:13:21;;;;;;;1.30;1.30;;;;;;;15.31;84.22;97274.75;4855010;29;20129;-67
2023/09/27 01:15:48;;;;;;;1.40;1.40;;;;;;;15.29;84.33;97279.09;4871131;29;20073;-67
2023/09/27 01:18:15;;;;;;;1.30;1.30;;;;;;;15.36;84.06;97279.94;4863490;29;20061;-64
2023/09/27 01:20:42;;;;;;;1.20;1.20;;;;;;;15.38;84.50;97283.16;4854382;29;20147;-66
2023/09/27 01:23:09;;;;;;;1.20;1.20;;;;;;;15.14;83.86;97222.50;4869969;29;20428;-65
2023/09/27 01:25:38;;;;;;;1.35;1.35;;;;;;;15.11;83.34;97226.06;4889079;29;20053;-66
2023/09/27 01:28:09;;;;;;;1.23;1.23;;;;;;;15.32;83.92;97276.34;4889732;29;20528;-65
2023/09/27 01:30:37;;;;;;;1.15;1.15;;;;;;;14.71;83.82;97167.78;4888236;29;20064;-67
2023/09/27 01:33:06;;;;;;;1.27;1.27;;;;;;;15.38;84.69;97283.16;4888465;29;20151;-68
2023/09/27 01:35:34;;;;;;;1.20;1.20;;;;;;;15.22;85.59;97279.91;4889728;29;20244;-66
2023/09/27 01:38:02;;;;;;;1.30;1.30;;;;;;;15.19;85.47;97280.69;4888490;29;20568;-66
2023/09/27 01:40:32;;;;;;;1.20;1.20;;;;;;;15.22;85.37;97274.34;4872604;29;20068;-65
2023/09/27 01:43:01;;;;;;;1.20;1.20;;;;;;;14.83;85.58;97234.34;4889825;29;20526;-65
2023/09/27 01:45:29;;;;;;;1.25;1.25;;;;;;;15.10;86.03;97289.44;4889352;29;20064;-65
2023/09/27 01:47:59;;;;;;;1.25;1.25;;;;;;;15.21;85.78;97278.28;4888302;29;20059;-66
2023/09/27 01:50:27;;;;;;;1.30;1.30;;;;;;;15.10;85.01;97260.72;4888359;29;20056;-66
2023/09/27 01:52:56;;;;;;;1.33;1.33;;;;;;;15.24;85.13;97288.66;4890114;29;20060;-66
2023/09/27 01:55:23;;;;;;;1.40;1.40;;;;;;;14.82;85.41;97249.47;4889155;29;20080;-66
2023/09/27 01:57:51;;;;;;;1.30;1.30;;;;;;;13.40;84.79;97007.63;4889067;29;20587;-65
2023/09/27 02:00:19;;;;;;;1.35;1.35;;;;;;;15.20;85.00;97287.88;4888997;29;20056;-66
2023/09/27 02:02:51;;;;;;;1.25;1.25;;;;;;;15.12;85.35;97280.66;4873366;29;20548;-65
2023/09/27 02:05:17;;;;;;;1.30;1.30;;;;;;;14.66;85.29;97204.41;4871012;29;20061;-67
2023/09/27 02:07:44;;;;;;;1.20;1.20;;;;;;;15.18;84.94;97291.06;4870295;29;20113;-66
2023/09/27 02:10:12;;;;;;;1.30;1.30;;;;;;;15.08;85.35;97296.59;4870527;29;20057;-67
2023/09/27 02:12:39;;;;;;;1.10;1.10;;;;;;;15.16;85.08;97287.84;4870772;29;20061;-66
2023/09/27 02:15:10;;;;;;;1.25;1.25;;;;;;;15.13;84.73;97282.25;4869219;29;20061;-66
2023/09/27 02:17:42;;;;;;;1.30;1.30;;;;;;;14.96;85.58;97283.00;4853730;29;20093;-65
2023/09/27 02:20:11;;;;;;;1.27;1.27;;;;;;;14.60;85.92;97214.34;4868613;29;20509;-66
2023/09/27 02:22:40;;;;;;;1.30;1.30;;;;;;;14.42;87.00;97216.25;4869074;29;20052;-66
2023/09/27 02:25:13;;;;;;;1.40;1.40;;;;;;;14.95;86.49;97287.00;4870705;29;20087;-66
2023/09/27 02:27:40;;;;;;;;;;;;;;;15.02;86.29;97287.81;4870831;29;20516;-66
2023/09/27 02:30:12;;;;;;;1.25;1.25;;;;;;;14.77;87.47;97297.25;4870142;29;19967;-67
2023/09/27 02:32:43;;;;;;;1.10;1.10;;;;;;;14.76;87.84;97290.88;4870481;29;20057;-66
2023/09/27 02:35:11;;;;;;;1.17;1.17;;;;;;;14.86;87.45;97289.31;4853263;29;20520;-67
2023/09/27 02:37:40;;;;;;;1.25;1.25;;;;;;;14.82;87.59;97285.75;4870046;29;20448;-66
2023/09/27 02:40:11;;;;;;;1.27;1.27;;;;;;;14.96;85.99;97277.44;4853595;29;20059;-66
2023/09/27 02:42:43;;;;;;;1.20;1.20;;;;;;;15.02;86.24;97289.78;4870241;29;20069;-68
2023/09/27 02:45:11;;;;;;;1.30;1.30;;;;;;;15.06;85.49;97290.63;4853456;29;20099;-68
2023/09/27 02:47:39;;;;;;;1.27;1.27;;;;;;;15.02;85.43;97292.59;4869955;29;20061;-67
2023/09/27 02:50:10;;;;;;;1.27;1.27;;;;;;;14.92;86.55;97287.78;4853612;29;20061;-66
2023/09/27 02:52:41;;;;;;;1.30;1.30;;;;;;;14.95;86.29;97292.56;4870189;29;20096;-66
2023/09/27 02:55:08;;;;;;;1.25;1.25;;;;;;;14.91;86.25;97291.75;4870102;29;20061;-66
2023/09/27 02:57:36;;;;;;;1.20;1.20;;;;;;;14.99;86.08;97293.38;4869833;29;20065;-66
2023/09/27 03:00:04;;;;;;;1.27;1.27;;;;;;;15.09;85.33;97295.41;4870161;29;20450;-68
2023/09/27 03:02:33;;;;;;;1.40;1.40;;;;;;;14.67;85.34;97258.97;4883157;29;20097;-65
2023/09/27 03:05:00;;;;;;;1.30;1.30;;;;;;;14.62;85.06;97256.56;4878775;29;20135;-66
2023/09/27 03:07:27;;;;;;;1.30;1.30;;;;;;;14.89;85.14;97285.78;4887270;29;20052;-66
2023/09/27 03:09:53;;;;;;;1.20;1.20;;;;;;;15.00;85.06;97283.84;4871517;29;20489;-65
2023/09/27 03:12:20;;;;;;;1.40;1.40;;;;;;;14.99;85.21;97287.78;4888414;29;20068;-65
2023/09/27 03:14:47;;;;;;;1.25;1.25;;;;;;;15.03;84.96;97297.00;4887827;29;20068;-64
2023/09/27 03:17:13;;;;;;;1.30;1.30;;;;;;;14.99;85.22;97294.19;4888456;29;20071;-65
2023/09/27 03:19:40;;;;;;;1.30;1.30;;;;;;;14.85;84.52;97285.75;4888682;29;20175;-67
2023/09/27 03:22:07;;;;;;;1.30;1.30;;;;;;;14.94;85.23;97296.53;4871657;29;20536;-66
2023/09/27 03:24:34;;;;;;;1.20;1.20;;;;;;;14.97;85.47;97295.75;4888808;29;20084;-66
2023/09/27 03:27:02;;;;;;;1.38;1.38;;;;;;;14.93;86.03;97301.34;4871641;29;20064;-66
2023/09/27 03:29:30;;;;;;;1.30;1.30;;;;;;;15.03;85.59;97297.00;4888893;29;20064;-66
2023/09/27 03:31:57;;;;;;;1.30;1.30;;;;;;;15.13;85.37;97293.41;4889910;29;20056;-67
2023/09/27 03:34:23;;;;;;;1.27;1.27;;;;;;;15.13;85.23;97299.00;4891886;29;20472;-67
2023/09/27 03:36:55;;;;;;;1.40;1.40;;;;;;;15.17;85.08;97308.19;4874505;29;20103;-66
2023/09/27 03:39:22;;;;;;;1.33;1.33;;;;;;;15.21;85.20;97289.47;4874807;29;20152;-66
2023/09/27 03:41:52;;;;;;;1.35;1.35;;;;;;;15.24;85.16;97316.56;4874657;29;20063;-68
2023/09/27 03:44:19;;;;;;;1.33;1.33;;;;;;;15.29;84.58;97315.38;4892084;29;20068;-67
2023/09/27 03:46:46;;;;;;;1.30;1.30;;;;;;;15.22;85.01;97307.81;4891632;29;20061;-67
2023/09/27 03:49:13;;;;;;;1.50;1.50;;;;;;;15.28;85.29;97309.03;4891839;29;20060;-66
2023/09/27 03:51:40;;;;;;;1.30;1.30;;;;;;;15.35;84.54;97311.03;4891416;29;20427;-65
2023/09/27 03:54:07;;;;;;;1.20;1.20;;;;;;;15.36;84.41;97307.84;4891703;29;20064;-67
2023/09/27 03:56:33;;;;;;;1.30;1.30;;;;;;;15.45;83.55;97308.31;4890482;29;20439;-66
2023/09/27 03:59:00;;;;;;;1.35;1.35;;;;;;;15.46;83.40;97307.09;4889947;29;20100;-66
2023/09/27 04:01:27;;;;;;;1.45;1.45;;;;;;;15.03;83.64;97249.56;4886173;29;20547;-66
2023/09/27 04:03:54;;;;;;;1.30;1.30;;;;;;;15.47;83.99;97308.72;4873016;29;20053;-65
2023/09/27 04:06:20;;;;;;;1.38;1.38;;;;;;;15.00;83.70;97234.41;4872502;29;20076;-65
2023/09/27 04:08:47;;;;;;;1.40;1.40;;;;;;;15.37;82.49;97320.63;4855616;29;20129;-66
2023/09/27 04:11:14;;;;;;;1.40;1.40;;;;;;;15.69;82.90;97309.53;4872237;29;20057;-65
2023/09/27 04:13:41;;;;;;;1.50;1.50;;;;;;;15.81;82.16;97315.53;4871177;29;20481;-64
2023/09/27 04:16:08;;;;;;;1.50;1.50;;;;;;;15.64;82.49;97295.97;4872075;29;20072;-66
2023/09/27 04:18:35;;;;;;;1.50;1.50;;;;;;;15.26;82.38;97241.63;4872592;29;20561;-65
2023/09/27 04:21:09;;;;;;;1.42;1.42;;;;;;;15.75;82.16;97294.78;4866717;29;20081;-65
2023/09/27 04:23:36;;;;;;;1.50;1.50;;;;;;;15.90;81.99;97320.75;4854107;29;20066;-66
2023/09/27 04:26:05;;;;;;;1.45;1.45;;;;;;;15.62;81.85;97254.47;4852678;29;20054;-65
2023/09/27 04:28:32;;;;;;;1.50;1.50;;;;;;;15.95;81.79;97312.75;4853872;29;20172;-66
2023/09/27 04:31:00;;;;;;;1.50;1.50;;;;;;;16.05;80.85;97317.56;4837174;29;20057;-66
2023/09/27 04:33:27;;;;;;;1.40;1.40;;;;;;;16.15;80.86;97316.75;4853661;29;20057;-65
2023/09/27 04:35:53;;;;;;;1.42;1.42;;;;;;;16.30;80.28;97318.34;4853444;29;20058;-66
2023/09/27 04:38:21;;;;;;;1.60;1.60;;;;;;;16.18;80.64;97310.38;4853749;29;20065;-65
2023/09/27 04:40:48;;;;;;;1.45;1.45;;;;;;;16.17;80.78;97296.78;4836696;29;20085;-66
2023/09/27 04:43:14;;;;;;;1.48;1.48;;;;;;;16.46;80.59;97310.34;4836711;29;20069;-66
2023/09/27 04:45:41;;;;;;;1.50;1.50;;;;;;;16.03;79.85;97236.09;4853400;29;20061;-66
2023/09/27 04:48:09;;;;;;;1.60;1.60;;;;;;;16.66;79.25;97318.31;4853072;29;20092;-65
2023/09/27 04:50:35;;;;;;;1.30;1.30;;;;;;;16.31;79.14;97263.22;4852697;29;20988;-67
2023/09/27 04:53:02;;;;;;;1.75;1.75;;;;;;;16.50;79.01;97274.78;4853477;29;20053;-65
2023/09/27 04:55:29;;;;;;;1.58;1.58;;;;;;;16.39;78.58;97231.25;4836244;29;20629;-61
2023/09/27 04:57:56;;;;;;;1.75;1.75;;;;;;;17.02;78.41;97322.59;4853201;29;20064;-64
2023/09/27 05:00:22;;;;;;;1.70;1.70;;;;;;;17.16;78.09;97316.94;4852952;29;20076;-64
2023/09/27 05:02:51;;;;;;;1.80;1.80;;;;;;;16.97;77.67;97275.44;4863304;29;20113;-65
2023/09/27 05:05:19;;;;;;;1.70;1.70;;;;;;;16.86;77.45;97241.91;4890061;29;20116;-64
2023/09/27 05:07:46;;;;;;;1.55;1.55;;;;;;;17.53;76.98;97317.97;4890353;29;20059;-64
2023/09/27 05:10:14;;;;;;;1.80;1.80;;;;;;;17.66;76.60;97321.09;4890101;29;20056;-64
2023/09/27 05:12:41;;;;;;;1.60;1.60;;;;;;;17.67;76.68;97322.69;4889840;29;20059;-65
2023/09/27 05:15:09;;;;;;;1.80;1.80;;;;;;;17.74;76.99;97322.63;4889626;29;20072;-63
2023/09/27 05:17:36;;;;;;;1.90;1.90;;;;;;;15.91;76.68;97007.44;4871532;29;20062;-64
2023/09/27 05:20:10;;;;;;;1.52;1.52;;;;;;;18.06;76.69;97317.59;4887747;29;20063;-64
2023/09/27 05:22:39;;;;;;;1.60;1.60;;;;;;;18.10;76.03;97284.72;4872765;29;20143;-64
2023/09/27 05:25:08;;;;;;;1.80;1.80;;;;;;;18.58;75.44;97310.75;4889068;29;20056;-64
2023/09/27 05:27:34;;;;;;;2.10;2.05;;;;;;;18.74;74.65;97308.19;4889498;29;20056;-64
2023/09/27 05:30:01;;;;;;;1.90;1.90;;;;;;;18.99;74.27;97319.94;4889052;29;20065;-65
2023/09/27 05:32:28;;;;;;;1.70;1.70;;;;;;;19.23;73.70;97318.84;4889401;29;20064;-65
2023/09/27 05:34:55;;;;;;;1.70;1.70;;;;;;;19.40;72.53;97306.63;4890055;29;20060;-64
2023/09/27 05:37:22;;;;;;;1.90;1.90;;;;;;;19.78;70.94;97321.34;4889723;29;20056;-64
2023/09/27 05:39:49;;;;;;;1.98;1.98;;;;;;;19.95;70.03;97319.50;4889302;29;20068;-64
2023/09/27 05:42:16;;;;;;;1.92;1.92;;;;;;;20.01;68.97;97295.28;4889253;29;20072;-64
2023/09/27 05:44:42;;;;;;;2.20;2.20;;;;;;;20.39;68.30;97322.00;4889218;29;20057;-66
2023/09/27 05:47:09;;;;;;;1.85;1.85;;;;;;;20.52;68.04;97297.63;4889067;29;20067;-64
2023/09/27 05:49:38;;;;;;;2.17;2.17;;;;;;;20.61;65.82;97269.75;4889565;29;20057;-64
2023/09/27 05:52:05;;;;;;;2.08;2.08;;;;;;;21.00;63.52;97306.41;4888959;29;20056;-64
2023/09/27 05:54:32;;;;;;;2.22;2.22;;;;;;;21.41;62.64;97320.88;4888523;29;20120;-67
2023/09/27 05:56:59;;;;;;;2.35;2.33;;;;;;;20.57;62.12;97209.88;4889018;29;20064;-64
2023/09/27 05:59:26;;;;;;;2.20;2.20;;;;;;;21.37;62.89;97337.03;4889268;29;20065;-63
2023/09/27 06:01:53;;;;;;;2.30;2.30;;;;;;;21.27;62.57;97331.63;4876656;29;20717;-63
2023/09/27 06:04:21;;;;;;;2.17;2.17;;;;;;;21.15;62.87;97323.84;4889379;29;20063;-64
2023/09/27 06:06:49;;;;;;;2.10;2.10;;;;;;;21.51;61.05;97333.94;4887048;29;20063;-60
2023/09/27 06:09:16;;;;;;;2.17;2.15;;;;;;;21.14;60.79;97230.06;4887587;29;20140;-61
2023/09/27 06:11:45;;;;;;;2.10;2.10;;;;;;;20.76;59.55;97183.75;4888648;29;20068;-66
2023/09/27 06:14:12;;;;;;;2.55;2.45;;;;;;;20.02;58.55;97050.19;4888199;29;20148;-60
2023/09/27 06:16:39;;;;;;;2.17;2.17;;;;;;;21.64;58.84;97336.91;4888218;29;20060;-63
2023/09/27 06:19:06;;;;;;;2.30;2.30;;;;;;;21.32;58.48;97272.75;4870839;29;20559;-62
2023/09/27 06:21:33;;;;;;;2.50;2.40;;;;;;;21.21;57.76;97260.91;4888300;29;20538;-61
2023/09/27 06:23:59;;;;;;;2.15;2.15;;;;;;;21.84;57.23;97323.59;4888698;29;20072;-62
2023/09/27 06:26:26;;;;;;;2.30;2.28;;;;;;;20.89;56.87;97235.38;4888378;29;20524;-63
2023/09/27 06:28:54;;;;;;;2.45;2.40;;;;;;;21.56;57.16;97293.19;4888079;29;20060;-67
2023/09/27 06:31:21;;;;;;;2.20;2.20;;;;;;;21.49;56.87;97332.78;4888548;29;20120;-61
2023/09/27 06:33:49;;;;;;;2.10;2.10;;;;;;;21.09;57.24;97264.38;4888254;29;20064;-67
2023/09/27 06:36:16;;;;;;;2.20;2.20;;;;;;;21.53;57.58;97337.09;4888275;29;20312;-61
2023/09/27 06:38:43;;;;;;;2.20;2.20;;;;;;;21.26;58.59;97307.50;4888123;29;20095;-62
2023/09/27 06:41:10;;;;;;;2.20;2.20;;;;;;;21.64;58.47;97334.09;4888450;29;20127;-59
2023/09/27 06:43:37;;;;;;;2.20;2.20;;;;;;;19.91;57.84;97037.53;4888350;29;20432;-61
2023/09/27 06:46:10;;;;;;;2.20;2.20;;;;;;;21.63;57.20;97332.47;4887684;29;20075;-64
2023/09/27 06:48:37;;;;;;;2.30;2.30;;;;;;;21.30;56.92;97285.69;4887728;29;20088;-64
2023/09/27 06:51:05;;;;;;;2.20;2.20;;;;;;;21.37;56.42;97258.13;4887835;29;20890;-67
2023/09/27 06:53:33;;;;;;;2.45;2.38;;;;;;;21.86;56.35;97290.88;4887918;29;20064;-69
2023/09/27 06:56:00;;;;;;;2.38;2.30;;;;;;;22.01;56.11;97351.38;4888210;29;20595;-67
2023/09/27 06:58:27;;;;;;;2.45;2.35;;;;;;;22.16;56.00;97349.03;4887440;29;20060;-65
2023/09/27 07:00:55;;;;;;;2.50;2.40;;;;;;;22.27;55.17;97316.47;4887554;29;20057;-59
2023/09/27 07:03:24;;;;;;;2.25;2.25;;;;;;;22.32;55.36;97347.00;4887480;29;20057;-60
2023/09/27 07:05:52;;;;;;;2.63;2.53;;;;;;;22.01;55.31;97274.41;4864664;29;20109;-68
2023/09/27 07:08:20;;;;;;;2.55;2.45;;;;;;;20.93;55.33;97148.78;4880237;29;20056;-70
2023/09/27 07:10:47;;;;;;;2.58;2.47;;;;;;;22.42;55.51;97351.63;4866772;29;20068;-62
2023/09/27 07:13:14;;;;;;;2.35;2.33;;;;;;;21.99;55.05;97228.91;4855673;29;20057;-61
2023/09/27 07:15:45;;;;;;;2.72;2.63;;;;;;;22.66;54.69;97337.31;4866901;29;20124;-66
2023/09/27 07:18:12;;;;;;;2.40;2.35;;;;;;;22.30;54.94;97331.75;4884100;29;20071;-70
2023/09/27 07:20:40;;;;;;;2.58;2.47;;;;;;;21.65;54.48;97215.22;4889884;29;20064;-62
2023/09/27 07:23:08;;;;;;;2.40;2.30;;;;;;;21.68;54.46;97239.72;4889962;29;20088;-65
2023/09/27 07:25:37;;;;;;;2.13;2.13;;;;;;;22.51;54.44;97367.16;4889978;29;20501;-61
2023/09/27 07:28:05;;;;;;;2.40;2.35;;;;;;;22.61;54.72;97347.13;4889748;29;20167;-69
2023/09/27 07:30:33;;;;;;;2.38;2.33;;;;;;;22.83;54.28;97353.00;4889786;29;20084;-70
2023/09/27 07:33:03;;;;;;;2.70;2.60;;;;;;;22.48;54.35;97297.44;4888001;29;20421;-65
2023/09/27 07:35:33;;;;;;;2.40;2.30;;;;;;;22.57;53.63;97328.69;4888798;29;20074;-67
2023/09/27 07:38:00;;;;;;;2.75;2.65;;;;;;;22.64;54.57;97365.22;4889490;29;20071;-61
2023/09/27 07:40:27;;;;;;;2.25;2.22;;;;;;;22.61;55.22;97363.28;4872150;29;20060;-59
2023/09/27 07:42:54;;;;;;;2.50;2.40;;;;;;;22.19;53.89;97280.41;4889321;29;20058;-65
2023/09/27 07:45:21;;;;;;;2.47;2.38;;;;;;;22.48;53.68;97314.38;4888092;29;20148;-67
2023/09/27 07:47:52;;;;;;;2.42;2.33;;;;;;;22.78;53.96;97373.34;4890645;29;20128;-65
2023/09/27 07:50:21;;;;;;;2.15;2.15;;;;;;;22.56;54.46;97355.34;4874562;29;20067;-67
2023/09/27 07:52:48;;;;;;;2.90;2.80;;;;;;;22.90;53.53;97358.50;4889564;29;20517;-68
2023/09/27 07:55:17;;;;;;;2.70;2.60;;;;;;;22.11;53.52;97290.28;4891175;29;20440;-71
2023/09/27 07:57:45;;;;;;;2.85;2.75;;;;;;;22.60;53.78;97339.09;4890871;29;20065;-60
2023/09/27 08:00:16;;;;;;;2.80;2.70;;;;;;;22.28;54.62;97328.56;4890964;29;20056;-62
2023/09/27 08:02:43;;;;;;;2.30;2.30;;;;;;;22.10;54.15;97306.41;4873896;29;20526;-62
2023/09/27 08:05:10;;;;;;;2.55;2.45;;;;;;;22.41;54.54;97357.69;4874240;29;20101;-61
2023/09/27 08:07:37;;;;;;;2.60;2.50;;;;;;;22.41;53.70;97350.00;4879152;29;20127;-62
2023/09/27 08:10:06;;;;;;;2.75;2.65;;;;;;;22.65;54.03;97358.34;4889923;29;20063;-63
2023/09/27 08:12:48;;;;;;;2.58;2.47;;;;;;;22.98;53.77;97359.88;4875566;29;20083;-68
2023/09/27 08:15:14;;;;;;;2.50;2.40;;;;;;;22.98;52.67;97337.28;4889097;29;20084;-71
2023/09/27 08:17:42;;;;;;;2.80;2.70;;;;;;;22.48;52.59;97287.72;4872945;29;20073;-64
2023/09/27 08:20:11;;;;;;;2.72;2.63;;;;;;;22.96;53.01;97373.66;4890331;29;20168;-67
2023/09/27 08:22:39;;;;;;;2.88;2.78;;;;;;;22.60;52.53;97356.03;4890282;29;20341;-60
2023/09/27 08:25:14;;;;;;;2.30;2.30;;;;;;;22.09;52.73;97254.06;4890099;29;20057;-62
2023/09/27 08:27:44;;;;;;;2.80;2.70;;;;;;;23.23;52.03;97368.50;4889532;29;20058;-64
2023/09/27 08:30:12;;;;;;;2.80;2.70;;;;;;;23.53;50.82;97362.41;4852101;29;20152;-59
2023/09/27 08:32:39;;;;;;;2.97;2.88;;;;;;;23.06;50.91;97225.63;4869308;29;20438;-66
2023/09/27 08:35:07;;;;;;;3.17;3.08;;;;;;;23.39;49.30;97273.13;4890120;29;20060;-61
2023/09/27 08:37:34;;;;;;;2.58;2.47;;;;;;;23.35;49.49;97268.81;4890111;29;20144;-69
2023/09/27 08:40:05;;;;;;;2.97;2.88;;;;;;;23.62;49.46;97303.13;4888482;29;20418;-63
2023/09/27 08:42:33;;;;;;;3.03;2.92;;;;;;;23.87;50.01;97400.19;4888690;29;20056;-65
2023/09/27 08:45:01;;;;;;;2.95;2.85;;;;;;;24.07;49.81;97360.41;4890690;29;20064;-61
2023/09/27 08:47:30;;;;;;;3.25;3.15;;;;;;;23.59;49.36;97298.38;4890210;29;20523;-62
2023/09/27 08:49:58;;;;;;;2.90;2.80;;;;;;;24.20;48.85;97366.84;4890213;29;20178;-62
2023/09/27 08:52:29;;;;;;;2.85;2.75;;;;;;;24.04;49.08;97364.13;4889822;29;20057;-69
2023/09/27 08:54:56;;;;;;;3.00;2.90;;;;;;;24.11;49.43;97363.91;4872815;29;20068;-59
2023/09/27 08:57:26;;;;;;;2.70;2.60;;;;;;;24.28;48.93;97354.06;4889442;29;20068;-62
2023/09/27 08:59:53;;;;;;;3.35;3.25;;;;;;;24.53;48.61;97373.88;4889617;29;20072;-64
2023/09/27 09:02:24;;;;;;;3.35;3.25;;;;;;;23.97;49.42;97370.00;4888078;29;20056;-66
2023/09/27 09:04:51;;;;;;;2.90;2.80;;;;;;;23.87;48.75;97331.47;4859323;29;20069;-68
2023/09/27 09:07:18;;;;;;;2.80;2.70;;;;;;;23.81;49.33;97321.94;4862988;29;20064;-63
2023/09/27 09:09:46;;;;;;;3.20;3.10;;;;;;;24.35;48.98;97302.84;4887589;29;20151;-63
2023/09/27 09:12:12;;;;;;;3.25;3.15;;;;;;;24.66;47.94;97366.19;4887404;29;20431;-61
2023/09/27 09:14:44;;;;;;;3.50;3.40;;;;;;;24.44;47.16;97327.66;4888028;29;20052;-60
2023/09/27 09:17:17;;;;;;;3.55;3.45;;;;;;;24.64;47.36;97317.66;4886643;29;20680;-62
2023/09/27 09:20:15;;;;;;;3.05;2.95;;;;;;;24.85;46.49;97333.94;4864382;29;20069;-62
2023/09/27 09:22:43;;;;;;;3.10;3.00;;;;;;;24.92;47.61;97350.72;4868841;29;20064;-63
2023/09/27 09:25:10;;;;;;;2.88;2.78;;;;;;;24.73;47.16;97357.44;4887731;29;20092;-65
2023/09/27 09:27:38;;;;;;;3.05;2.95;;;;;;;24.16;46.61;97269.91;4887144;29;20461;-60
2023/09/27 09:30:11;;;;;;;3.40;3.30;;;;;;;23.10;46.15;97042.59;4886489;29;20088;-64
2023/09/27 09:32:51;;;;;;;3.17;3.08;;;;;;;24.39;45.81;97294.25;4887656;29;20591;-63
2023/09/27 09:35:31;;;;;;;3.35;3.25;;;;;;;24.73;46.75;97346.13;4874159;29;20167;-63
2023/09/27 09:38:00;;;;;;;3.33;3.22;;;;;;;24.97;46.57;97341.63;4889345;29;20063;-63
2023/09/27 09:40:28;;;;;;;3.25;3.15;;;;;;;25.04;45.44;97341.38;4888574;29;20342;-62
2023/09/27 09:42:59;;;;;;;2.95;2.85;;;;;;;24.54;45.69;97255.69;4889233;29;20207;-63
2023/09/27 09:45:28;;;;;;;3.35;3.25;;;;;;;24.68;45.31;97275.03;4888946;29;20056;-63
2023/09/27 09:47:56;;;;;;;3.15;3.05;;;;;;;25.03;45.05;97300.09;4889134;29;20069;-64
2023/09/27 09:50:23;;;;;;;3.65;3.55;;;;;;;25.52;45.16;97327.91;4872115;29;20068;-62
2023/09/27 09:52:53;;;;;;;3.70;3.60;;;;;;;26.02;44.10;97327.66;4888731;29;20056;-59
2023/09/27 09:55:21;;;;;;;3.72;3.63;;;;;;;25.18;44.55;97306.84;4887728;29;20057;-63
2023/09/27 09:58:37;;;;;;;3.47;3.38;;;;;;;25.37;45.36;97333.31;4888676;29;20052;-61
2023/09/27 10:01:04;;;;;;;3.72;3.63;;;;;;;24.06;44.62;97072.91;4887311;29;20087;-61
2023/09/27 10:03:33;;;;;;;3.33;3.22;;;;;;;25.27;45.65;97309.75;4888732;29;20072;-61
2023/09/27 10:06:05;;;;;;;3.00;2.90;;;;;;;25.51;45.13;97306.50;4888961;29;20064;-60
2023/09/27 10:08:38;;;;;;;3.28;3.17;;;;;;;25.09;45.78;97325.81;4887192;29;20086;-60
2023/09/27 10:11:24;;;;;;;3.17;3.08;;;;;;;24.85;45.89;97333.94;4888611;29;20531;-61
2023/09/27 10:13:52;;;;;;;3.47;3.38;;;;;;;24.58;45.50;97245.03;4888665;29;20076;-65
2023/09/27 10:16:22;;;;;;;3.30;3.20;;;;;;;25.54;44.71;97333.94;4888327;29;20056;-62
2023/09/27 10:18:54;;;;;;;3.60;3.50;;;;;;;25.46;43.24;97225.59;4888860;29;20119;-68
2023/09/27 10:21:20;;;;;;;3.13;3.03;;;;;;;25.23;43.68;97178.63;4888654;29;20612;-65
2023/09/27 10:23:52;;;;;;;3.25;3.15;;;;;;;26.07;42.25;97307.13;4888577;29;20060;-68
2023/09/27 10:26:28;;;;;;;3.47;3.38;;;;;;;25.00;43.54;97227.31;4871542;29;20061;-63
2023/09/27 10:29:06;;;;;;;3.25;3.15;;;;;;;24.71;46.04;97306.09;4888497;29;20512;-68
2023/09/27 10:31:38;;;;;;;3.08;2.97;;;;;;;24.89;46.45;97302.66;4888208;29;20068;-61
2023/09/27 10:36:55;;;;;;;3.50;3.40;;;;;;;24.07;45.82;97164.28;4888225;29;20061;-65
2023/09/27 10:40:18;;;;;;;3.22;3.13;;;;;;;25.07;45.67;97300.00;4888442;29;20627;-62
2023/09/27 10:42:45;;;;;;;3.40;3.30;;;;;;;25.16;44.76;97288.72;4891874;29;20417;-69
2023/09/27 10:45:12;;;;;;;3.17;3.08;;;;;;;24.95;45.09;97303.66;4892009;29;20143;-65
2023/09/27 10:47:39;;;;;;;3.28;3.17;;;;;;;24.53;44.92;97215.22;4877035;29;20069;-66
2023/09/27 10:50:08;;;;;;;3.08;2.97;;;;;;;25.30;44.88;97288.97;4891927;29;20052;-64
2023/09/27 10:52:37;;;;;;;3.17;3.08;;;;;;;24.63;44.88;97202.72;4891923;29;20061;-67
2023/09/27 10:55:14;;;;;;;3.08;2.97;;;;;;;25.09;45.18;97292.59;4875332;29;20057;-68
2023/09/27 10:57:41;;;;;;;3.28;3.17;;;;;;;24.61;45.09;97205.22;4891474;29;20155;-68
2023/09/27 11:00:12;;;;;;;2.78;2.67;;;;;;;25.00;45.20;97238.66;4874726;29;20212;-62
2023/09/27 11:02:41;;;;;;;3.05;2.95;;;;;;;25.60;45.07;97252.63;4874605;29;20062;-61
2023/09/27 11:05:09;;;;;;;3.15;3.05;;;;;;;25.58;43.86;97175.69;4891413;29;20749;-66
2023/09/27 11:07:43;;;;;;;3.42;3.33;;;;;;;25.48;43.37;97206.06;4891628;29;20056;-62
2023/09/27 11:10:10;;;;;;;3.30;3.20;;;;;;;25.73;43.44;97267.53;4891377;29;20148;-61
2023/09/27 11:12:37;;;;;;;3.75;3.65;;;;;;;26.30;43.16;97269.69;4891560;29;20061;-68
2023/09/27 11:15:04;;;;;;;3.40;3.30;;;;;;;26.54;42.39;97260.09;4891357;29;20061;-61
2023/09/27 11:17:31;;;;;;;3.45;3.35;;;;;;;26.35;42.22;97258.47;4891461;29;20508;-60
2023/09/27 11:20:11;;;;;;;3.90;3.80;;;;;;;26.50;41.51;97235.94;4891156;29;20068;-68
2023/09/27 11:22:38;;;;;;;3.60;3.50;;;;;;;26.12;41.79;97196.56;4891449;29;20971;-67
2023/09/27 11:25:26;;;;;;;4.07;3.97;;;;;;;26.70;41.05;97196.50;4874814;29;20524;-64
2023/09/27 11:27:52;;;;;;;4.03;3.92;;;;;;;26.90;41.21;97285.00;4887097;29;20096;-67
2023/09/27 11:30:24;;;;;;;4.38;4.28;;;;;;;27.09;41.47;97249.59;4841420;29;20065;-63
2023/09/27 11:32:52;;;;;;;3.92;3.83;;;;;;;27.47;40.75;97224.31;4863232;29;20053;-60
2023/09/27 11:35:23;;;;;;;3.85;3.75;;;;;;;26.86;41.53;97264.44;4872739;29;20065;-66
2023/09/27 11:38:07;;;;;;;3.78;3.67;;;;;;;25.75;42.65;97191.22;4876636;29;20151;-66
2023/09/27 11:40:35;;;;;;;3.47;3.38;;;;;;;25.47;42.77;97136.38;4871481;29;20140;-62
2023/09/27 11:43:02;;;;;;;3.60;3.50;;;;;;;26.37;41.91;97227.56;4878818;29;20064;-62
2023/09/27 11:45:50;;;;;;;3.67;3.58;;;;;;;26.47;42.42;97268.16;4873036;29;20100;-64